Latest Coastal Weather Observations for Cape Nelson

IDS60701

Issued at 1:51 pm CST Wednesday 2 September 2015 (issued every 10 minutes, with the page automatically refreshed every 10 minutes)

About coastal observations | Map of coastal stations | Coastal observations for SA | Marine services | Other Formats
Station Details ID: 090184 Name: CAPE NELSON LIGHTHOUSE Lat: -38.43 Lon: 141.54 Height: 45.4 m
Data from the previous 72 hours. | See also: Recent months at Cape Nelson
Date/Time
CST
Temp

°C
Wind Pressure Rain
since 9am
mm
Weather Cloud Vis
km
Sea
Height
m
Swell
Dir
 
Speed
knots
Gust
knots
hPa Trend Height
m
Period
s
Dir
02/01:30pm 12.6 NNE 6 11 1005.8 - 1.2 - - - - - - -
02/01:00pm 12.2 N 4 8 1006.4 - 1.0 - - - - - - -
02/12:30pm 11.9 NNE 7 11 1006.8 - 1.0 - - - - - - -
02/12:00pm 11.5 NNE 9 15 1006.9 - 1.0 - - - - - - -
02/11:30am 11.5 ENE 7 9 1007.3 - 1.0 Recent precip. - - - - - -
02/11:00am 11.2 NE 4 7 1007.3 - 1.0 - - - - - - -
02/10:30am 11.2 NNE 5 8 1007.5 - 0.0 - - - - - - -
02/10:00am 11.7 NE 7 9 1007.8 - 0.0 - - - - - - -
02/09:30am 11.8 NNE 8 11 1008.2 - 0.0 - - - - - - -
02/09:00am 12.2 NNE 9 12 1008.0 - 0.0 - - - - - - -
02/08:30am 12.2 NE 11 16 1007.7 - 0.0 - - - - - - -
02/08:00am 12.3 NE 12 15 1007.8 - 0.0 - - - - - - -
02/07:30am 12.7 NE 12 16 1007.7 - 0.0 - - - - - - -
02/07:00am 12.2 NE 11 17 1007.6 - 0.0 - - - - - - -
02/06:30am 12.1 NNE 10 16 1007.6 - 0.0 - - - - - - -
02/06:00am 12.3 NNE 11 15 1007.7 - 0.0 - - - - - - -
02/05:30am 12.3 NNE 10 14 1007.6 - 0.0 - - - - - - -
02/05:00am 12.1 NNE 11 15 1007.8 - 0.0 - - - - - - -
02/04:30am 11.9 N 11 15 1008.1 - 0.0 - - - - - - -
02/04:00am 11.8 NNE 11 15 1007.8 - 0.0 - - - - - - -
02/03:30am 11.0 NNE 11 15 1008.0 - 0.0 - - - - - - -
02/03:00am 12.1 N 13 17 1008.2 - 0.0 - - - - - - -
02/02:30am 12.5 NNE 12 17 1008.4 - 0.0 - - - - - - -
02/02:00am 12.3 N 12 17 1008.7 - 0.0 - - - - - - -
02/01:30am 12.2 NNE 12 17 1008.8 - 0.0 - - - - - - -
02/01:00am 12.2 NNE 13 17 1008.9 - 0.0 - - - - - - -
02/12:30am 12.1 NNE 11 16 1009.0 - 0.0 - - - - - - -
02/12:00am 11.7 NE 11 15 1009.4 - 0.0 - - - - - - -
 
Date/Time
CST
Temp

°C
Wind Pressure Rain
since 9am
mm
Weather Cloud Vis
km
Sea
Height
m
Swell
Dir
 
Speed
knots
Gust
knots
hPa Trend Height
m
Period
s
Dir
01/11:30pm 12.2 NE 8 11 1009.6 - 0.0 - - - - - - -
01/11:00pm 12.4 NE 8 11 1009.9 - 0.0 - - - - - - -
01/10:30pm 12.3 NE 8 10 1010.2 - 0.0 - - - - - - -
01/10:00pm 12.4 NE 9 12 1010.3 - 0.0 - - - - - - -
01/09:30pm 12.4 NE 9 12 1010.4 - 0.0 - - - - - - -
01/09:00pm 12.6 NE 11 13 1010.6 - 0.0 - - - - - - -
01/08:30pm 12.7 NE 10 13 1010.7 - 0.0 - - - - - - -
01/08:00pm 13.0 NE 11 15 1010.7 - 0.0 - - - - - - -
01/07:30pm 12.7 ENE 11 15 1010.7 - 0.0 - - - - - - -
01/07:00pm 12.7 ENE 11 15 1010.8 - 0.0 - - - - - - -
01/06:30pm 12.6 NE 9 13 1011.1 - 0.0 - - - - - - -
01/06:00pm 12.5 ENE 12 16 1011.0 - 0.0 - - - - - - -
01/05:30pm 12.5 ENE 11 18 1010.8 - 0.0 - - - - - - -
01/05:00pm 12.6 ENE 10 14 1010.9 - 0.0 - - - - - - -
01/04:30pm 12.8 E 10 16 1010.7 - 0.0 - - - - - - -
01/04:00pm 12.7 E 13 17 1010.6 - 0.0 - - - - - - -
01/03:30pm 12.6 E 14 17 1011.0 - 0.0 - - - - - - -
01/03:00pm 12.6 E 12 15 1011.5 - 0.0 - - - - - - -
01/02:30pm 12.4 E 9 13 1012.0 - 0.0 - - - - - - -
01/02:00pm 12.5 E 9 12 1012.4 - 0.0 - - - - - - -
01/01:30pm 11.9 ENE 9 12 1012.7 - 0.0 - - - - - - -
01/01:00pm 12.0 ENE 10 13 1013.1 - 0.0 - - - - - - -
01/12:30pm 12.8 NE 9 11 1013.6 - 0.0 - - - - - - -
01/12:00pm 12.4 ENE 8 11 1014.0 - 0.0 - - - - - - -
01/11:30am 11.8 ENE 10 13 1014.4 - 0.0 - - - - - - -
01/11:00am 12.0 E 8 10 1015.0 - 0.0 - - - - - - -
01/10:30am 11.5 ENE 7 10 1015.4 - 0.0 - - - - - - -
01/10:00am 11.2 ENE 6 9 1015.8 - 0.0 - - - - - - -
01/09:30am 9.5 NE 7 8 1016.2 - 0.0 - - - - - - -
01/09:00am 8.9 NE 7 9 1016.3 - 0.0 - - - - - - -
01/08:30am 8.7 NE 7 9 1016.3 - 0.0 - - - - - - -
01/08:00am 7.6 NE 7 10 1016.2 - 0.0 - - - - - - -
01/07:30am 6.5 NNE 7 10 1016.3 - 0.0 - - - - - - -
01/07:00am 5.1 NNE 7 9 1016.3 - 0.0 - - - - - - -
01/06:30am 4.4 NNE 8 9 1016.0 - 0.0 - - - - - - -
01/06:00am 3.9 NNE 8 9 1015.8 - 0.0 - - - - - - -
01/05:30am 4.4 NNE 7 9 1015.9 - 0.0 - - - - - - -
01/05:00am 5.0 NNE 7 10 1015.7 - 0.0 - - - - - - -
01/04:30am 5.4 NNE 7 9 1015.7 - 0.0 - - - - - - -
01/04:00am 4.5 NNE 8 10 1015.8 - 0.0 - - - - - - -
01/03:30am 4.5 NNE 8 9 1015.9 - 0.0 - - - - - - -
01/03:00am 4.1 NNE 7 9 1016.2 - 0.0 - - - - - - -
01/02:30am 4.3 N 7 8 1016.8 - 0.0 - - - - - - -
01/02:00am 5.1 N 7 8 1017.2 - 0.0 - - - - - - -
01/01:30am 5.4 N 7 7 1017.5 - 0.0 - - - - - - -
01/01:00am 6.3 N 6 7 1017.8 - 0.0 - - - - - - -
01/12:30am 7.5 N 5 6 1018.1 - 0.0 - - - - - - -
01/12:00am 7.9 N 5 6 1018.4 - 0.0 - - - - - - -
 
Date/Time
CST
Temp

°C
Wind Pressure Rain
since 9am
mm
Weather Cloud Vis
km
Sea
Height
m
Swell
Dir
 
Speed
knots
Gust
knots
hPa Trend Height
m
Period
s
Dir
31/11:30pm 8.1 NNW 3 5 1018.9 - 0.0 - - - - - - -
31/11:00pm 8.3 N 4 5 1019.0 - 0.0 - - - - - - -
31/10:30pm 8.3 CALM 0 0 1019.2 - 0.0 - - - - - - -
31/10:00pm 8.6 CALM 0 0 1019.5 - 0.0 - - - - - - -
31/09:30pm 9.2 WNW 4 6 1019.7 - 0.0 - - - - - - -
31/09:00pm 9.1 SE 3 6 1019.7 - 0.0 - - - - - - -
31/08:30pm 8.8 NE 1 4 1019.8 - 0.0 - - - - - - -
31/08:00pm 9.1 ENE 2 5 1019.9 - 0.0 - - - - - - -
31/07:30pm 9.3 ESE 6 9 1019.5 - 0.0 - - - - - - -
31/07:00pm 9.0 SE 2 5 1019.4 - 0.0 - - - - - - -
31/06:30pm 9.3 SSE 6 9 1019.3 - 0.0 - - - - - - -
31/06:00pm 9.4 SSE 5 7 1019.3 - 0.0 - - - - - - -
31/05:30pm 9.6 SSE 5 6 1019.4 - 0.0 - - - - - - -
31/05:00pm 9.7 SE 6 7 1019.2 - 0.0 - - - - - - -
31/04:30pm 9.6 SSE 9 11 1019.5 - 0.0 - - - - - - -
31/04:00pm 9.8 SE 9 12 1019.6 - 0.0 - - - - - - -
31/03:30pm 10.4 ESE 8 10 1019.8 - 0.0 - - - - - - -
31/03:00pm 12.0 ESE 7 10 1019.9 - 0.0 - - - - - - -
31/02:30pm 11.9 S 4 9 1020.2 - 0.0 - - - - - - -
31/02:00pm 11.5 S 5 7 1020.2 - 0.0 - - - - - - -
31/01:30pm 11.7 S 5 7 1020.5 - 0.0 - - - - - - -
31/01:00pm 11.6 SSW 4 6 1020.8 - 0.0 - - - - - - -
31/12:30pm 11.4 SE 4 5 1021.2 - 0.0 - - - - - - -
31/12:00pm 11.2 SSE 7 10 1021.7 - 0.0 - - - - - - -
31/11:30am 11.2 SSE 5 8 1022.1 - 0.0 - - - - - - -
31/11:00am 10.0 W 4 6 1022.2 - 0.0 - - - - - - -
31/10:30am 9.2 WSW 4 6 1022.3 - 0.0 - - - - - - -
31/10:00am 9.9 ENE 2 5 1022.3 - 0.0 - - - - - - -
31/09:30am 9.7 SW 4 6 1022.5 - 0.0 - - - - - - -
31/09:00am 9.1 SSW 5 7 1022.4 - 0.0 - - - - - - -
31/08:30am 9.2 W 5 6 1022.6 - 0.6 - - - - - - -
31/08:00am 8.7 S 5 8 1022.4 - 0.6 - - - - - - -
31/07:30am 9.0 E 3 9 1022.3 - 0.6 - - - - - - -
31/07:00am 8.2 N 3 4 1022.2 - 0.6 - - - - - - -
31/06:30am 8.8 S 5 9 1022.0 - 0.6 - - - - - - -
31/06:00am 9.0 SSE 7 9 1022.1 - 0.6 - - - - - - -
31/05:30am 8.8 SSE 4 7 1021.9 - 0.6 - - - - - - -
31/05:00am 8.9 S 5 7 1022.0 - 0.6 - - - - - - -
31/04:30am 8.5 SE 4 8 1022.1 - 0.6 - - - - - - -
31/04:00am 8.6 SSE 7 9 1022.0 - 0.6 - - - - - - -
31/03:30am 7.8 ESE 3 6 1021.9 - 0.6 - - - - - - -
31/03:00am 8.4 ESE 8 11 1022.1 - 0.6 - - - - - - -
31/02:30am 7.4 WNW 3 5 1022.5 - 0.6 - - - - - - -
31/02:00am 8.1 WSW 2 5 1022.9 - 0.6 - - - - - - -
31/01:30am 7.1 CALM 0 0 1023.3 - 0.6 - - - - - - -
31/01:00am 7.6 CALM 0 3 1023.7 - 0.6 - - - - - - -
31/12:30am 8.6 SE 8 11 1023.9 - 0.6 - - - - - - -
31/12:00am 7.4 CALM 0 0 1024.1 - 0.6 - - - - - - -
 
Date/Time
CST
Temp

°C
Wind Pressure Rain
since 9am
mm
Weather Cloud Vis
km
Sea
Height
m
Swell
Dir
 
Speed
knots
Gust
knots
hPa Trend Height
m
Period
s
Dir
30/11:30pm 8.5 SSE 4 6 1024.2 - 0.0 - - - - - - -
30/11:00pm 8.7 SE 7 10 1024.5 - 0.0 - - - - - - -
30/10:30pm 8.7 SE 9 13 1024.5 - 0.0 - - - - - - -
30/10:00pm 9.6 SE 9 14 1024.7 - 0.0 - - - - - - -
30/09:30pm 9.6 SSE 5 8 1025.0 - 0.0 - - - - - - -
30/09:00pm 9.6 ESE 8 12 1025.1 - 0.0 - - - - - - -
30/08:30pm 9.6 SE 8 13 1025.0 - 0.0 - - - - - - -
30/08:00pm 9.5 SE 9 11 1025.1 - 0.0 - - - - - - -
30/07:30pm 9.3 SSE 11 15 1025.0 - 0.0 - - - - - - -
30/07:00pm 9.1 E 2 4 1025.0 - 0.0 - - - - - - -
30/06:30pm 9.3 ESE 5 8 1025.2 - 0.0 - - - - - - -
30/06:00pm 9.3 SSE 7 8 1025.0 - 0.0 - - - - - - -
30/05:30pm 9.1 SSE 12 15 1025.0 - 0.0 - - - - - - -
30/05:00pm 9.4 SE 8 12 1024.8 - 0.0 - - - - - - -
30/04:30pm 9.9 SE 9 13 1024.9 - 0.0 - - - - - - -
30/04:00pm 10.2 E 5 6 1025.1 - 0.0 - - - - - - -
30/03:30pm 10.6 SSE 9 13 1025.2 - 0.0 - - - - - - -
30/03:00pm 11.3 SE 8 12 1025.2 - 0.0 - - - - - - -
30/02:30pm 11.6 SE 9 13 1025.3 - 0.0 - - - - - - -
30/02:00pm 11.6 SE 9 13 1025.5 - 0.0 - - - - - - -
30/01:30pm 11.7 SE 8 10 1025.5 - 0.0 - - - - - - -

Other Formats:

Comma delimited format used in spreadsheet applications
http://www.bom.gov.au/fwo/IDS60701/IDS60701.94826.axf

JavaScript Object Notation format (JSON) in row-major order
http://www.bom.gov.au/fwo/IDS60701/IDS60701.94826.json